sensor_id;sensor_type;location;lat;lon;timestamp;P1;durP1;ratioP1;P2;durP2;ratioP2
35993;SDS011;22066;54.274;18.578;2023-06-14T00:02:06;12.38;;;4.82;;
35993;SDS011;22066;54.274;18.578;2023-06-14T00:04:34;9.27;;;3.58;;
35993;SDS011;22066;54.274;18.578;2023-06-14T00:07:00;12.25;;;5.38;;
35993;SDS011;22066;54.274;18.578;2023-06-14T00:09:26;8.65;;;3.53;;
35993;SDS011;22066;54.274;18.578;2023-06-14T00:11:52;9.43;;;3.80;;
35993;SDS011;22066;54.274;18.578;2023-06-14T00:14:18;9.40;;;3.60;;
35993;SDS011;22066;54.274;18.578;2023-06-14T00:16:44;10.25;;;3.95;;
35993;SDS011;22066;54.274;18.578;2023-06-14T00:19:10;7.63;;;3.70;;
35993;SDS011;22066;54.274;18.578;2023-06-14T00:21:37;8.07;;;3.72;;
35993;SDS011;22066;54.274;18.578;2023-06-14T00:24:03;9.00;;;3.50;;
35993;SDS011;22066;54.274;18.578;2023-06-14T00:26:30;12.90;;;4.30;;
35993;SDS011;22066;54.274;18.578;2023-06-14T00:28:56;12.52;;;4.15;;
35993;SDS011;22066;54.274;18.578;2023-06-14T00:31:22;15.65;;;5.20;;
35993;SDS011;22066;54.274;18.578;2023-06-14T00:33:48;14.75;;;5.05;;
35993;SDS011;22066;54.274;18.578;2023-06-14T00:36:15;18.20;;;5.38;;
35993;SDS011;22066;54.274;18.578;2023-06-14T00:38:41;15.38;;;5.28;;
35993;SDS011;22066;54.274;18.578;2023-06-14T00:41:07;18.00;;;5.05;;
35993;SDS011;22066;54.274;18.578;2023-06-14T00:43:33;17.42;;;6.03;;
35993;SDS011;22066;54.274;18.578;2023-06-14T00:46:00;14.30;;;4.97;;
35993;SDS011;22066;54.274;18.578;2023-06-14T00:48:26;16.52;;;5.75;;
35993;SDS011;22066;54.274;18.578;2023-06-14T00:50:53;18.55;;;6.40;;
35993;SDS011;22066;54.274;18.578;2023-06-14T00:53:19;16.08;;;5.82;;
35993;SDS011;22066;54.274;18.578;2023-06-14T00:55:48;15.07;;;5.65;;
35993;SDS011;22066;54.274;18.578;2023-06-14T00:58:14;16.58;;;5.63;;
35993;SDS011;22066;54.274;18.578;2023-06-14T01:00:40;12.07;;;4.93;;
35993;SDS011;22066;54.274;18.578;2023-06-14T01:03:07;11.93;;;4.32;;
35993;SDS011;22066;54.274;18.578;2023-06-14T01:05:37;17.08;;;4.80;;
35993;SDS011;22066;54.274;18.578;2023-06-14T01:13:33;18.00;;;6.30;;
35993;SDS011;22066;54.274;18.578;2023-06-14T01:16:00;15.50;;;6.20;;
35993;SDS011;22066;54.274;18.578;2023-06-14T01:18:30;14.55;;;5.97;;
35993;SDS011;22066;54.274;18.578;2023-06-14T01:20:57;14.95;;;6.22;;
35993;SDS011;22066;54.274;18.578;2023-06-14T01:23:23;13.80;;;5.10;;
35993;SDS011;22066;54.274;18.578;2023-06-14T01:25:50;14.63;;;5.18;;
35993;SDS011;22066;54.274;18.578;2023-06-14T01:28:20;12.55;;;4.78;;
35993;SDS011;22066;54.274;18.578;2023-06-14T01:30:47;10.07;;;3.97;;
35993;SDS011;22066;54.274;18.578;2023-06-14T01:33:15;10.65;;;4.72;;
35993;SDS011;22066;54.274;18.578;2023-06-14T01:35:43;9.57;;;4.05;;
35993;SDS011;22066;54.274;18.578;2023-06-14T01:38:09;9.43;;;4.18;;
35993;SDS011;22066;54.274;18.578;2023-06-14T01:40:35;11.23;;;3.90;;
35993;SDS011;22066;54.274;18.578;2023-06-14T01:43:02;9.40;;;3.88;;
35993;SDS011;22066;54.274;18.578;2023-06-14T01:45:29;11.60;;;4.80;;
35993;SDS011;22066;54.274;18.578;2023-06-14T01:47:55;11.93;;;5.05;;
35993;SDS011;22066;54.274;18.578;2023-06-14T01:50:21;11.95;;;5.00;;
35993;SDS011;22066;54.274;18.578;2023-06-14T01:52:47;12.20;;;4.60;;
35993;SDS011;22066;54.274;18.578;2023-06-14T01:55:13;9.32;;;3.85;;
35993;SDS011;22066;54.274;18.578;2023-06-14T01:57:40;9.35;;;4.50;;
35993;SDS011;22066;54.274;18.578;2023-06-14T02:00:06;12.10;;;4.80;;
35993;SDS011;22066;54.274;18.578;2023-06-14T02:02:35;41.05;;;6.95;;
35993;SDS011;22066;54.274;18.578;2023-06-14T02:05:01;106.93;;;11.10;;
35993;SDS011;22066;54.274;18.578;2023-06-14T02:07:27;41.42;;;7.63;;
35993;SDS011;22066;54.274;18.578;2023-06-14T02:09:53;28.27;;;6.03;;
35993;SDS011;22066;54.274;18.578;2023-06-14T02:12:20;19.77;;;4.38;;
35993;SDS011;22066;54.274;18.578;2023-06-14T02:14:46;24.42;;;4.85;;
35993;SDS011;22066;54.274;18.578;2023-06-14T02:17:12;11.10;;;4.38;;
35993;SDS011;22066;54.274;18.578;2023-06-14T02:19:38;15.90;;;3.25;;
35993;SDS011;22066;54.274;18.578;2023-06-14T02:22:04;6.53;;;3.33;;
35993;SDS011;22066;54.274;18.578;2023-06-14T02:24:30;10.38;;;3.60;;
35993;SDS011;22066;54.274;18.578;2023-06-14T02:26:56;9.18;;;3.97;;
35993;SDS011;22066;54.274;18.578;2023-06-14T02:29:22;6.75;;;3.38;;
35993;SDS011;22066;54.274;18.578;2023-06-14T02:31:48;8.43;;;3.47;;
35993;SDS011;22066;54.274;18.578;2023-06-14T02:34:15;8.07;;;3.70;;
35993;SDS011;22066;54.274;18.578;2023-06-14T02:36:42;7.28;;;3.63;;
35993;SDS011;22066;54.274;18.578;2023-06-14T02:39:10;10.40;;;3.88;;
35993;SDS011;22066;54.274;18.578;2023-06-14T02:41:36;15.32;;;3.25;;
35993;SDS011;22066;54.274;18.578;2023-06-14T02:44:02;7.00;;;2.90;;
35993;SDS011;22066;54.274;18.578;2023-06-14T02:46:29;7.78;;;3.17;;
35993;SDS011;22066;54.274;18.578;2023-06-14T02:48:55;8.02;;;3.25;;
35993;SDS011;22066;54.274;18.578;2023-06-14T02:51:21;6.70;;;3.17;;
35993;SDS011;22066;54.274;18.578;2023-06-14T02:53:47;8.85;;;3.47;;
35993;SDS011;22066;54.274;18.578;2023-06-14T02:56:13;7.15;;;3.28;;
35993;SDS011;22066;54.274;18.578;2023-06-14T02:58:39;7.70;;;3.13;;
35993;SDS011;22066;54.274;18.578;2023-06-14T03:01:05;9.57;;;3.42;;
35993;SDS011;22066;54.274;18.578;2023-06-14T03:03:32;9.80;;;3.45;;
35993;SDS011;22066;54.274;18.578;2023-06-14T03:05:59;7.90;;;3.65;;
35993;SDS011;22066;54.274;18.578;2023-06-14T03:08:30;6.70;;;3.67;;
35993;SDS011;22066;54.274;18.578;2023-06-14T03:11:03;7.15;;;3.13;;
35993;SDS011;22066;54.274;18.578;2023-06-14T03:13:30;8.32;;;3.45;;
35993;SDS011;22066;54.274;18.578;2023-06-14T03:15:57;6.20;;;3.05;;
35993;SDS011;22066;54.274;18.578;2023-06-14T03:18:23;8.60;;;3.60;;
35993;SDS011;22066;54.274;18.578;2023-06-14T03:20:49;7.75;;;3.58;;
35993;SDS011;22066;54.274;18.578;2023-06-14T03:23:16;8.95;;;3.30;;
35993;SDS011;22066;54.274;18.578;2023-06-14T03:25:42;6.07;;;3.13;;
35993;SDS011;22066;54.274;18.578;2023-06-14T03:28:08;6.45;;;3.15;;
35993;SDS011;22066;54.274;18.578;2023-06-14T03:30:35;10.90;;;3.67;;
35993;SDS011;22066;54.274;18.578;2023-06-14T03:33:01;8.27;;;3.10;;
35993;SDS011;22066;54.274;18.578;2023-06-14T03:35:28;6.35;;;3.08;;
35993;SDS011;22066;54.274;18.578;2023-06-14T03:37:54;7.88;;;2.97;;
35993;SDS011;22066;54.274;18.578;2023-06-14T03:40:20;7.15;;;3.22;;
35993;SDS011;22066;54.274;18.578;2023-06-14T03:42:47;10.35;;;3.53;;
35993;SDS011;22066;54.274;18.578;2023-06-14T03:45:13;8.50;;;3.08;;
35993;SDS011;22066;54.274;18.578;2023-06-14T03:47:39;8.07;;;3.58;;
35993;SDS011;22066;54.274;18.578;2023-06-14T03:50:05;8.27;;;3.45;;
35993;SDS011;22066;54.274;18.578;2023-06-14T03:52:31;6.75;;;3.03;;
35993;SDS011;22066;54.274;18.578;2023-06-14T03:54:58;7.25;;;2.90;;
35993;SDS011;22066;54.274;18.578;2023-06-14T03:57:25;7.13;;;3.03;;
35993;SDS011;22066;54.274;18.578;2023-06-14T03:59:51;9.32;;;3.40;;
35993;SDS011;22066;54.274;18.578;2023-06-14T04:02:17;8.35;;;3.35;;
35993;SDS011;22066;54.274;18.578;2023-06-14T04:04:44;12.65;;;3.58;;
35993;SDS011;22066;54.274;18.578;2023-06-14T04:07:11;6.05;;;3.35;;
35993;SDS011;22066;54.274;18.578;2023-06-14T04:09:37;8.55;;;3.63;;
35993;SDS011;22066;54.274;18.578;2023-06-14T04:12:04;7.43;;;3.47;;
35993;SDS011;22066;54.274;18.578;2023-06-14T04:14:30;8.50;;;3.53;;
35993;SDS011;22066;54.274;18.578;2023-06-14T04:16:58;6.70;;;3.58;;
35993;SDS011;22066;54.274;18.578;2023-06-14T04:19:24;7.65;;;3.35;;
35993;SDS011;22066;54.274;18.578;2023-06-14T04:21:50;10.45;;;3.05;;
35993;SDS011;22066;54.274;18.578;2023-06-14T04:24:16;9.65;;;3.22;;
35993;SDS011;22066;54.274;18.578;2023-06-14T04:26:42;7.80;;;3.25;;
35993;SDS011;22066;54.274;18.578;2023-06-14T04:29:13;7.55;;;3.30;;
35993;SDS011;22066;54.274;18.578;2023-06-14T04:34:07;5.63;;;2.85;;
35993;SDS011;22066;54.274;18.578;2023-06-14T04:36:33;7.65;;;3.47;;
35993;SDS011;22066;54.274;18.578;2023-06-14T04:39:01;14.00;;;3.42;;
35993;SDS011;22066;54.274;18.578;2023-06-14T04:41:28;6.20;;;3.47;;
35993;SDS011;22066;54.274;18.578;2023-06-14T04:43:58;14.32;;;4.05;;
35993;SDS011;22066;54.274;18.578;2023-06-14T04:46:26;10.85;;;4.05;;
35993;SDS011;22066;54.274;18.578;2023-06-14T04:48:53;9.13;;;5.05;;
35993;SDS011;22066;54.274;18.578;2023-06-14T04:51:19;9.07;;;4.47;;
35993;SDS011;22066;54.274;18.578;2023-06-14T04:53:54;11.65;;;4.05;;
35993;SDS011;22066;54.274;18.578;2023-06-14T04:56:22;13.52;;;4.20;;
35993;SDS011;22066;54.274;18.578;2023-06-14T04:58:48;12.75;;;4.35;;
35993;SDS011;22066;54.274;18.578;2023-06-14T05:01:14;16.63;;;5.68;;
35993;SDS011;22066;54.274;18.578;2023-06-14T05:03:40;11.85;;;5.00;;
35993;SDS011;22066;54.274;18.578;2023-06-14T05:06:06;10.07;;;4.65;;
35993;SDS011;22066;54.274;18.578;2023-06-14T05:08:32;14.38;;;4.57;;
35993;SDS011;22066;54.274;18.578;2023-06-14T05:10:58;13.50;;;4.78;;
35993;SDS011;22066;54.274;18.578;2023-06-14T05:13:24;13.63;;;5.05;;
35993;SDS011;22066;54.274;18.578;2023-06-14T05:15:53;9.75;;;4.03;;
35993;SDS011;22066;54.274;18.578;2023-06-14T05:18:19;16.10;;;4.15;;
35993;SDS011;22066;54.274;18.578;2023-06-14T05:20:45;18.75;;;4.90;;
35993;SDS011;22066;54.274;18.578;2023-06-14T05:23:11;14.07;;;4.43;;
35993;SDS011;22066;54.274;18.578;2023-06-14T05:25:43;9.98;;;4.07;;
35993;SDS011;22066;54.274;18.578;2023-06-14T05:28:10;13.50;;;4.25;;
35993;SDS011;22066;54.274;18.578;2023-06-14T05:30:37;13.70;;;4.13;;
35993;SDS011;22066;54.274;18.578;2023-06-14T05:33:03;9.10;;;4.50;;
35993;SDS011;22066;54.274;18.578;2023-06-14T05:35:29;13.55;;;4.35;;
35993;SDS011;22066;54.274;18.578;2023-06-14T05:37:55;15.77;;;5.03;;
35993;SDS011;22066;54.274;18.578;2023-06-14T05:40:21;10.13;;;4.22;;
35993;SDS011;22066;54.274;18.578;2023-06-14T05:42:47;15.27;;;4.60;;
35993;SDS011;22066;54.274;18.578;2023-06-14T05:45:13;10.55;;;4.13;;
35993;SDS011;22066;54.274;18.578;2023-06-14T05:47:41;13.87;;;5.13;;
35993;SDS011;22066;54.274;18.578;2023-06-14T05:50:07;12.43;;;5.78;;
35993;SDS011;22066;54.274;18.578;2023-06-14T05:52:34;15.02;;;4.72;;
35993;SDS011;22066;54.274;18.578;2023-06-14T05:55:01;14.18;;;5.53;;
35993;SDS011;22066;54.274;18.578;2023-06-14T05:57:28;22.40;;;6.63;;
35993;SDS011;22066;54.274;18.578;2023-06-14T05:59:54;15.85;;;6.60;;
35993;SDS011;22066;54.274;18.578;2023-06-14T06:02:20;15.40;;;6.18;;
35993;SDS011;22066;54.274;18.578;2023-06-14T06:04:46;16.83;;;6.82;;
35993;SDS011;22066;54.274;18.578;2023-06-14T06:07:12;18.48;;;5.97;;
35993;SDS011;22066;54.274;18.578;2023-06-14T06:09:38;15.88;;;6.75;;
35993;SDS011;22066;54.274;18.578;2023-06-14T06:12:06;14.73;;;6.07;;
35993;SDS011;22066;54.274;18.578;2023-06-14T06:14:32;16.00;;;6.50;;
35993;SDS011;22066;54.274;18.578;2023-06-14T06:16:58;17.58;;;6.28;;
35993;SDS011;22066;54.274;18.578;2023-06-14T06:19:24;16.23;;;7.60;;
35993;SDS011;22066;54.274;18.578;2023-06-14T06:21:50;19.73;;;7.82;;
35993;SDS011;22066;54.274;18.578;2023-06-14T06:24:16;16.23;;;6.93;;
35993;SDS011;22066;54.274;18.578;2023-06-14T06:26:42;25.95;;;8.10;;
35993;SDS011;22066;54.274;18.578;2023-06-14T06:29:08;21.27;;;7.82;;
35993;SDS011;22066;54.274;18.578;2023-06-14T06:31:35;16.73;;;6.97;;
35993;SDS011;22066;54.274;18.578;2023-06-14T06:34:01;18.88;;;7.97;;
35993;SDS011;22066;54.274;18.578;2023-06-14T06:36:27;16.90;;;6.45;;
35993;SDS011;22066;54.274;18.578;2023-06-14T06:38:53;17.02;;;7.60;;
35993;SDS011;22066;54.274;18.578;2023-06-14T06:41:19;18.58;;;7.82;;
35993;SDS011;22066;54.274;18.578;2023-06-14T06:43:45;17.90;;;7.72;;
35993;SDS011;22066;54.274;18.578;2023-06-14T06:46:11;24.80;;;7.35;;
35993;SDS011;22066;54.274;18.578;2023-06-14T06:48:38;16.90;;;7.75;;
35993;SDS011;22066;54.274;18.578;2023-06-14T06:51:04;20.20;;;8.27;;
35993;SDS011;22066;54.274;18.578;2023-06-14T06:53:30;24.17;;;7.25;;
35993;SDS011;22066;54.274;18.578;2023-06-14T06:55:56;22.85;;;7.97;;
35993;SDS011;22066;54.274;18.578;2023-06-14T06:58:22;20.10;;;8.00;;
35993;SDS011;22066;54.274;18.578;2023-06-14T07:00:48;21.63;;;8.20;;
35993;SDS011;22066;54.274;18.578;2023-06-14T07:03:15;19.33;;;7.38;;
35993;SDS011;22066;54.274;18.578;2023-06-14T07:05:41;21.98;;;7.57;;
35993;SDS011;22066;54.274;18.578;2023-06-14T07:08:07;19.95;;;7.28;;
35993;SDS011;22066;54.274;18.578;2023-06-14T07:10:33;27.02;;;8.55;;
35993;SDS011;22066;54.274;18.578;2023-06-14T07:12:59;24.63;;;8.30;;
35993;SDS011;22066;54.274;18.578;2023-06-14T07:15:25;17.92;;;6.85;;
35993;SDS011;22066;54.274;18.578;2023-06-14T07:17:51;15.68;;;6.82;;
35993;SDS011;22066;54.274;18.578;2023-06-14T07:20:18;17.40;;;7.22;;
35993;SDS011;22066;54.274;18.578;2023-06-14T07:22:46;42.92;;;23.38;;
35993;SDS011;22066;54.274;18.578;2023-06-14T07:25:12;24.70;;;7.68;;
35993;SDS011;22066;54.274;18.578;2023-06-14T07:27:39;18.67;;;6.75;;
35993;SDS011;22066;54.274;18.578;2023-06-14T07:30:05;16.98;;;6.32;;
35993;SDS011;22066;54.274;18.578;2023-06-14T07:32:32;18.25;;;6.88;;
35993;SDS011;22066;54.274;18.578;2023-06-14T07:34:58;17.00;;;6.72;;
35993;SDS011;22066;54.274;18.578;2023-06-14T07:37:24;16.60;;;6.43;;
35993;SDS011;22066;54.274;18.578;2023-06-14T07:39:50;14.30;;;5.85;;
35993;SDS011;22066;54.274;18.578;2023-06-14T07:42:16;14.05;;;5.60;;
35993;SDS011;22066;54.274;18.578;2023-06-14T07:44:42;15.40;;;6.15;;
35993;SDS011;22066;54.274;18.578;2023-06-14T07:47:08;16.98;;;6.93;;
35993;SDS011;22066;54.274;18.578;2023-06-14T07:49:35;18.88;;;7.10;;
35993;SDS011;22066;54.274;18.578;2023-06-14T07:52:01;17.45;;;5.30;;
35993;SDS011;22066;54.274;18.578;2023-06-14T07:54:27;12.50;;;5.22;;
35993;SDS011;22066;54.274;18.578;2023-06-14T07:56:53;14.35;;;6.00;;
35993;SDS011;22066;54.274;18.578;2023-06-14T07:59:21;17.42;;;5.35;;
35993;SDS011;22066;54.274;18.578;2023-06-14T08:01:47;14.68;;;7.13;;
35993;SDS011;22066;54.274;18.578;2023-06-14T08:04:16;16.73;;;5.07;;
35993;SDS011;22066;54.274;18.578;2023-06-14T08:06:42;16.27;;;5.78;;
35993;SDS011;22066;54.274;18.578;2023-06-14T08:09:10;13.90;;;5.22;;
35993;SDS011;22066;54.274;18.578;2023-06-14T08:11:36;13.70;;;4.60;;
35993;SDS011;22066;54.274;18.578;2023-06-14T08:14:02;13.13;;;5.47;;
35993;SDS011;22066;54.274;18.578;2023-06-14T08:16:28;15.10;;;4.93;;
35993;SDS011;22066;54.274;18.578;2023-06-14T08:18:55;12.35;;;4.35;;
35993;SDS011;22066;54.274;18.578;2023-06-14T08:21:21;9.82;;;4.45;;
35993;SDS011;22066;54.274;18.578;2023-06-14T08:23:47;20.55;;;5.55;;
35993;SDS011;22066;54.274;18.578;2023-06-14T08:26:13;11.15;;;4.70;;
35993;SDS011;22066;54.274;18.578;2023-06-14T08:28:39;11.65;;;4.90;;
35993;SDS011;22066;54.274;18.578;2023-06-14T08:31:05;9.70;;;4.82;;
35993;SDS011;22066;54.274;18.578;2023-06-14T08:33:31;8.88;;;4.22;;
35993;SDS011;22066;54.274;18.578;2023-06-14T08:36:01;11.20;;;4.60;;
35993;SDS011;22066;54.274;18.578;2023-06-14T08:38:27;12.50;;;4.95;;
35993;SDS011;22066;54.274;18.578;2023-06-14T08:40:55;12.43;;;5.03;;
35993;SDS011;22066;54.274;18.578;2023-06-14T08:43:23;11.00;;;4.95;;
35993;SDS011;22066;54.274;18.578;2023-06-14T08:45:49;12.07;;;4.88;;
35993;SDS011;22066;54.274;18.578;2023-06-14T08:48:19;10.35;;;4.32;;
35993;SDS011;22066;54.274;18.578;2023-06-14T08:50:46;9.93;;;4.55;;
35993;SDS011;22066;54.274;18.578;2023-06-14T08:53:14;10.60;;;4.95;;
35993;SDS011;22066;54.274;18.578;2023-06-14T08:55:44;12.50;;;4.50;;
35993;SDS011;22066;54.274;18.578;2023-06-14T08:58:12;12.80;;;5.93;;
35993;SDS011;22066;54.274;18.578;2023-06-14T09:00:39;12.68;;;4.68;;
35993;SDS011;22066;54.274;18.578;2023-06-14T09:03:08;14.90;;;5.63;;
35993;SDS011;22066;54.274;18.578;2023-06-14T09:05:38;14.13;;;4.75;;
35993;SDS011;22066;54.274;18.578;2023-06-14T09:08:04;13.35;;;5.15;;
35993;SDS011;22066;54.274;18.578;2023-06-14T09:10:31;13.57;;;5.43;;
35993;SDS011;22066;54.274;18.578;2023-06-14T09:13:00;12.57;;;4.88;;
35993;SDS011;22066;54.274;18.578;2023-06-14T09:15:26;10.35;;;5.10;;
35993;SDS011;22066;54.274;18.578;2023-06-14T09:17:52;16.20;;;5.43;;
35993;SDS011;22066;54.274;18.578;2023-06-14T09:20:19;13.77;;;4.68;;
35993;SDS011;22066;54.274;18.578;2023-06-14T09:22:45;13.60;;;6.03;;
35993;SDS011;22066;54.274;18.578;2023-06-14T09:25:11;14.80;;;6.07;;
35993;SDS011;22066;54.274;18.578;2023-06-14T09:27:40;19.50;;;7.25;;
35993;SDS011;22066;54.274;18.578;2023-06-14T09:30:08;17.92;;;6.43;;
35993;SDS011;22066;54.274;18.578;2023-06-14T09:32:38;17.35;;;7.90;;
35993;SDS011;22066;54.274;18.578;2023-06-14T09:35:05;16.42;;;7.68;;
35993;SDS011;22066;54.274;18.578;2023-06-14T09:37:32;14.77;;;6.65;;
35993;SDS011;22066;54.274;18.578;2023-06-14T09:39:58;10.98;;;5.93;;
35993;SDS011;22066;54.274;18.578;2023-06-14T09:42:24;16.23;;;7.55;;
35993;SDS011;22066;54.274;18.578;2023-06-14T09:44:51;18.02;;;8.02;;
35993;SDS011;22066;54.274;18.578;2023-06-14T09:47:18;15.38;;;6.78;;
35993;SDS011;22066;54.274;18.578;2023-06-14T09:49:44;18.65;;;8.10;;
35993;SDS011;22066;54.274;18.578;2023-06-14T09:52:16;22.17;;;8.90;;
35993;SDS011;22066;54.274;18.578;2023-06-14T09:54:42;16.92;;;8.48;;
35993;SDS011;22066;54.274;18.578;2023-06-14T09:57:12;20.83;;;7.78;;
35993;SDS011;22066;54.274;18.578;2023-06-14T09:59:42;13.93;;;6.80;;
35993;SDS011;22066;54.274;18.578;2023-06-14T10:02:14;23.23;;;9.73;;
35993;SDS011;22066;54.274;18.578;2023-06-14T10:04:46;23.67;;;8.93;;
35993;SDS011;22066;54.274;18.578;2023-06-14T10:07:14;23.52;;;12.35;;
35993;SDS011;22066;54.274;18.578;2023-06-14T10:09:41;21.67;;;8.20;;
35993;SDS011;22066;54.274;18.578;2023-06-14T10:12:13;25.42;;;10.48;;
35993;SDS011;22066;54.274;18.578;2023-06-14T10:14:45;25.13;;;7.88;;
35993;SDS011;22066;54.274;18.578;2023-06-14T10:17:12;26.48;;;7.30;;
35993;SDS011;22066;54.274;18.578;2023-06-14T10:22:32;11.98;;;5.53;;
35993;SDS011;22066;54.274;18.578;2023-06-14T10:25:01;13.18;;;5.22;;
35993;SDS011;22066;54.274;18.578;2023-06-14T10:27:27;17.58;;;5.78;;
35993;SDS011;22066;54.274;18.578;2023-06-14T10:32:22;14.65;;;4.82;;
35993;SDS011;22066;54.274;18.578;2023-06-14T10:34:56;13.63;;;4.13;;
35993;SDS011;22066;54.274;18.578;2023-06-14T10:37:22;9.65;;;4.03;;
35993;SDS011;22066;54.274;18.578;2023-06-14T10:39:49;9.98;;;4.32;;
35993;SDS011;22066;54.274;18.578;2023-06-14T10:42:16;9.85;;;4.05;;
35993;SDS011;22066;54.274;18.578;2023-06-14T10:44:45;10.02;;;3.50;;
35993;SDS011;22066;54.274;18.578;2023-06-14T10:49:45;10.63;;;3.40;;
35993;SDS011;22066;54.274;18.578;2023-06-14T10:52:12;13.10;;;4.57;;
35993;SDS011;22066;54.274;18.578;2023-06-14T10:55:00;6.97;;;3.28;;
35993;SDS011;22066;54.274;18.578;2023-06-14T10:57:26;6.97;;;3.15;;
35993;SDS011;22066;54.274;18.578;2023-06-14T10:59:53;7.80;;;3.83;;
35993;SDS011;22066;54.274;18.578;2023-06-14T11:02:27;6.13;;;3.03;;
35993;SDS011;22066;54.274;18.578;2023-06-14T11:04:58;15.52;;;3.53;;
35993;SDS011;22066;54.274;18.578;2023-06-14T11:10:00;8.93;;;4.03;;
35993;SDS011;22066;54.274;18.578;2023-06-14T11:12:32;13.80;;;4.13;;
35993;SDS011;22066;54.274;18.578;2023-06-14T11:14:59;9.85;;;4.40;;
35993;SDS011;22066;54.274;18.578;2023-06-14T11:17:25;16.38;;;4.60;;
35993;SDS011;22066;54.274;18.578;2023-06-14T11:20:06;9.45;;;4.40;;
35993;SDS011;22066;54.274;18.578;2023-06-14T11:22:38;22.58;;;6.95;;
35993;SDS011;22066;54.274;18.578;2023-06-14T11:25:07;19.52;;;6.40;;
35993;SDS011;22066;54.274;18.578;2023-06-14T11:27:33;17.40;;;7.05;;
35993;SDS011;22066;54.274;18.578;2023-06-14T11:29:59;24.23;;;6.45;;
35993;SDS011;22066;54.274;18.578;2023-06-14T11:32:25;12.90;;;5.15;;
35993;SDS011;22066;54.274;18.578;2023-06-14T11:34:52;16.63;;;5.85;;
35993;SDS011;22066;54.274;18.578;2023-06-14T11:37:18;11.68;;;5.47;;
35993;SDS011;22066;54.274;18.578;2023-06-14T11:39:44;15.50;;;5.03;;
35993;SDS011;22066;54.274;18.578;2023-06-14T11:42:16;9.63;;;4.80;;
35993;SDS011;22066;54.274;18.578;2023-06-14T11:44:45;11.75;;;4.35;;
35993;SDS011;22066;54.274;18.578;2023-06-14T11:47:12;12.20;;;3.60;;
35993;SDS011;22066;54.274;18.578;2023-06-14T11:49:38;8.57;;;3.38;;
35993;SDS011;22066;54.274;18.578;2023-06-14T11:52:04;7.43;;;3.50;;
35993;SDS011;22066;54.274;18.578;2023-06-14T11:54:31;14.25;;;4.18;;
35993;SDS011;22066;54.274;18.578;2023-06-14T11:56:58;25.38;;;6.50;;
35993;SDS011;22066;54.274;18.578;2023-06-14T11:59:24;12.45;;;4.93;;
35993;SDS011;22066;54.274;18.578;2023-06-14T12:01:52;17.88;;;6.43;;
35993;SDS011;22066;54.274;18.578;2023-06-14T12:04:28;11.65;;;5.40;;
35993;SDS011;22066;54.274;18.578;2023-06-14T12:06:55;19.20;;;6.18;;
35993;SDS011;22066;54.274;18.578;2023-06-14T12:09:22;14.40;;;5.15;;
35993;SDS011;22066;54.274;18.578;2023-06-14T12:11:51;7.22;;;3.85;;
35993;SDS011;22066;54.274;18.578;2023-06-14T12:14:31;17.58;;;5.78;;
35993;SDS011;22066;54.274;18.578;2023-06-14T12:17:07;16.50;;;4.78;;
35993;SDS011;22066;54.274;18.578;2023-06-14T12:19:33;16.77;;;4.72;;
35993;SDS011;22066;54.274;18.578;2023-06-14T12:21:59;10.65;;;4.30;;
35993;SDS011;22066;54.274;18.578;2023-06-14T12:24:29;10.63;;;3.40;;
35993;SDS011;22066;54.274;18.578;2023-06-14T12:26:58;14.13;;;4.50;;
35993;SDS011;22066;54.274;18.578;2023-06-14T12:29:25;9.13;;;3.72;;
35993;SDS011;22066;54.274;18.578;2023-06-14T12:31:51;17.35;;;5.05;;
35993;SDS011;22066;54.274;18.578;2023-06-14T12:36:45;10.88;;;2.90;;
35993;SDS011;22066;54.274;18.578;2023-06-14T12:39:11;8.70;;;3.33;;
35993;SDS011;22066;54.274;18.578;2023-06-14T12:41:38;12.68;;;3.30;;
35993;SDS011;22066;54.274;18.578;2023-06-14T12:44:20;14.35;;;3.47;;
35993;SDS011;22066;54.274;18.578;2023-06-14T12:47:04;10.10;;;2.92;;
35993;SDS011;22066;54.274;18.578;2023-06-14T12:49:30;12.88;;;3.55;;
35993;SDS011;22066;54.274;18.578;2023-06-14T12:51:56;8.65;;;2.70;;
35993;SDS011;22066;54.274;18.578;2023-06-14T12:54:22;11.50;;;3.20;;
35993;SDS011;22066;54.274;18.578;2023-06-14T12:59:16;11.05;;;3.75;;
35993;SDS011;22066;54.274;18.578;2023-06-14T13:01:43;9.10;;;3.33;;
35993;SDS011;22066;54.274;18.578;2023-06-14T13:04:10;17.25;;;4.20;;
35993;SDS011;22066;54.274;18.578;2023-06-14T13:06:36;15.60;;;3.10;;
35993;SDS011;22066;54.274;18.578;2023-06-14T13:09:02;10.10;;;3.55;;
35993;SDS011;22066;54.274;18.578;2023-06-14T13:11:29;9.50;;;3.00;;
35993;SDS011;22066;54.274;18.578;2023-06-14T13:13:55;12.07;;;2.75;;
35993;SDS011;22066;54.274;18.578;2023-06-14T13:16:21;7.85;;;2.97;;
35993;SDS011;22066;54.274;18.578;2023-06-14T13:18:47;8.98;;;3.40;;
35993;SDS011;22066;54.274;18.578;2023-06-14T13:21:13;9.55;;;3.25;;
35993;SDS011;22066;54.274;18.578;2023-06-14T13:23:39;11.82;;;4.50;;
35993;SDS011;22066;54.274;18.578;2023-06-14T13:26:06;11.55;;;3.53;;
35993;SDS011;22066;54.274;18.578;2023-06-14T13:28:32;11.73;;;3.22;;
35993;SDS011;22066;54.274;18.578;2023-06-14T13:31:00;10.27;;;3.63;;
35993;SDS011;22066;54.274;18.578;2023-06-14T13:33:27;12.52;;;3.47;;
35993;SDS011;22066;54.274;18.578;2023-06-14T13:35:53;11.15;;;3.17;;
35993;SDS011;22066;54.274;18.578;2023-06-14T13:38:19;14.57;;;2.92;;
35993;SDS011;22066;54.274;18.578;2023-06-14T13:40:45;17.80;;;3.15;;
35993;SDS011;22066;54.274;18.578;2023-06-14T13:43:11;8.82;;;3.45;;
35993;SDS011;22066;54.274;18.578;2023-06-14T13:45:37;10.07;;;2.80;;
35993;SDS011;22066;54.274;18.578;2023-06-14T13:48:03;8.88;;;3.38;;
35993;SDS011;22066;54.274;18.578;2023-06-14T13:50:29;14.30;;;3.30;;
35993;SDS011;22066;54.274;18.578;2023-06-14T13:52:55;10.32;;;3.85;;
35993;SDS011;22066;54.274;18.578;2023-06-14T13:55:21;7.13;;;3.80;;
35993;SDS011;22066;54.274;18.578;2023-06-14T13:57:47;17.45;;;5.25;;
35993;SDS011;22066;54.274;18.578;2023-06-14T14:00:14;8.23;;;2.72;;
35993;SDS011;22066;54.274;18.578;2023-06-14T14:02:40;13.05;;;3.60;;
35993;SDS011;22066;54.274;18.578;2023-06-14T14:05:06;6.55;;;2.70;;
35993;SDS011;22066;54.274;18.578;2023-06-14T14:07:32;6.60;;;2.55;;
35993;SDS011;22066;54.274;18.578;2023-06-14T14:09:59;7.50;;;2.97;;
35993;SDS011;22066;54.274;18.578;2023-06-14T14:12:26;8.27;;;3.30;;
35993;SDS011;22066;54.274;18.578;2023-06-14T14:14:53;6.18;;;3.22;;
35993;SDS011;22066;54.274;18.578;2023-06-14T14:17:20;14.68;;;3.40;;
35993;SDS011;22066;54.274;18.578;2023-06-14T14:19:46;12.23;;;3.35;;
35993;SDS011;22066;54.274;18.578;2023-06-14T14:22:12;9.77;;;3.53;;
35993;SDS011;22066;54.274;18.578;2023-06-14T14:24:38;9.57;;;3.38;;
35993;SDS011;22066;54.274;18.578;2023-06-14T14:27:04;8.35;;;3.60;;
35993;SDS011;22066;54.274;18.578;2023-06-14T14:29:31;8.63;;;3.20;;
35993;SDS011;22066;54.274;18.578;2023-06-14T14:31:57;19.92;;;5.53;;
35993;SDS011;22066;54.274;18.578;2023-06-14T14:34:24;8.95;;;3.50;;
35993;SDS011;22066;54.274;18.578;2023-06-14T14:36:50;8.07;;;2.95;;
35993;SDS011;22066;54.274;18.578;2023-06-14T14:39:16;7.53;;;2.80;;
35993;SDS011;22066;54.274;18.578;2023-06-14T14:41:42;8.07;;;3.50;;
35993;SDS011;22066;54.274;18.578;2023-06-14T14:44:08;9.05;;;2.80;;
35993;SDS011;22066;54.274;18.578;2023-06-14T14:46:34;13.85;;;4.25;;
35993;SDS011;22066;54.274;18.578;2023-06-14T14:49:00;10.35;;;3.00;;